Eendracht — PDVN — position and weather

sailwx.info

Track history (hours):
 
Tides and Currents Weather Stations Pressure Air Temp Water Temp Dewpoint Dewpoint Depression Visibility Wind Speed Wind Dir Waves Ship Positions

Eendracht (Netherlands)

Last reported at 2019-Apr-25 15:30 UTC. Time now 2019-Apr-25 15:55 UTC.
Position N 52°10' E 003°25'.

Length 59 m; beam 12 m; draft 5 m.

Type: Sailing vessel. MMSI: 244543000.

Date/timePositionNaut miles runAvg speedWind from/ knotsBaromVisibWave heightAir tempDewpointWater temp
2019-Apr-25 15:30N 52°10' E 003°25'2 3.2
2019-Apr-25 15:00N 52°09' E 003°27'1 2.9
2019-Apr-25 14:30N 52°09' E 003°29'3 5.4
2019-Apr-25 14:01N 52°08' E 003°33'4 8.5
2019-Apr-25 13:30N 52°06' E 003°40'3 7.0
2019-Apr-25 13:00N 52°06' E 003°45'4 7.1
2019-Apr-25 12:30N 52°05' E 003°51'3 6.7
2019-Apr-25 12:01N 52°06' E 003°56'1 2.1
2019-Apr-25 11:31N 52°05' E 003°57'4 7.3
2019-Apr-25 11:01N 52°01' E 003°58'4 8.4
2019-Apr-25 10:31N 51°59' E 004°04'5 9.5
2019-Apr-25 10:01N 51°57' E 004°11'5 9.6
2019-Apr-25 09:31N 51°54' E 004°17'4 7.9
2019-Apr-25 09:01N 51°54' E 004°24'2 5.0
2019-Apr-25 08:31N 51°54' E 004°28'0 0.0
2019-Apr-25 07:56N 51°54' E 004°28'0 0.0
2019-Apr-25 07:26N 51°54' E 004°28'0 0.0
2019-Apr-25 07:00N 51°54' E 004°28'0 0.0
2019-Apr-25 06:26N 51°54' E 004°28'0 0.0
2019-Apr-25 05:59N 51°54' E 004°28'0 0.0
2019-Apr-25 05:26N 51°54' E 004°28'0 0.0
2019-Apr-25 04:59N 51°54' E 004°28'0 0.0
2019-Apr-25 04:29N 51°54' E 004°28'0 0.0
2019-Apr-25 03:59N 51°54' E 004°28'0 0.0
2019-Apr-25 03:29N 51°54' E 004°28'0 0.0
2019-Apr-25 02:59N 51°54' E 004°28'0 0.0
2019-Apr-25 02:29N 51°54' E 004°28'0 0.0
2019-Apr-25 01:59N 51°54' E 004°28'0 0.0
2019-Apr-25 01:29N 51°54' E 004°28'0 0.0
2019-Apr-25 00:59N 51°54' E 004°28'0 0.0
2019-Apr-25 00:29N 51°54' E 004°28'0 0.0
2019-Apr-24 23:59N 51°54' E 004°28'0 0.0
2019-Apr-24 23:29N 51°54' E 004°28'0 0.0
2019-Apr-24 22:56N 51°54' E 004°28'0 0.0
2019-Apr-24 22:29N 51°54' E 004°28'0 0.0
2019-Apr-24 21:59N 51°54' E 004°28'0 0.0
2019-Apr-24 21:29N 51°54' E 004°28'0 0.0
2019-Apr-24 20:59N 51°54' E 004°28'0 0.0
2019-Apr-24 20:29N 51°54' E 004°28'0 0.0
2019-Apr-24 19:59N 51°54' E 004°28'0 0.0
2019-Apr-24 19:29N 51°54' E 004°28'0 0.0
2019-Apr-24 18:59N 51°54' E 004°28'0 0.0
2019-Apr-24 18:29N 51°54' E 004°28'0 0.0
2019-Apr-24 17:59N 51°54' E 004°28'0 0.0
2019-Apr-24 17:29N 51°54' E 004°28'0 0.0
2019-Apr-24 16:59N 51°54' E 004°28'0 0.0
2019-Apr-24 16:29N 51°54' E 004°28'0 0.0
2019-Apr-24 15:59N 51°54' E 004°28'0 0.0
2019-Apr-24 15:29N 51°54' E 004°28'0 0.0
2019-Apr-24 14:59N 51°54' E 004°28'0 0.0
2019-Apr-24 14:29N 51°54' E 004°28'0 0.0
2019-Apr-24 13:59N 51°54' E 004°28'0 0.0
2019-Apr-24 13:29N 51°54' E 004°28'0 0.5
2019-Apr-24 13:00N 51°54' E 004°27'4 7.3
2019-Apr-24 12:30N 51°54' E 004°21'3 6.6
2019-Apr-24 12:00N 51°54' E 004°16'3 6.3
2019-Apr-24 11:30N 51°56' E 004°12'3 6.0
2019-Apr-24 11:00N 51°58' E 004°08'3 5.7
2019-Apr-24 10:30N 51°59' E 004°04'2 4.3
2019-Apr-24 10:00N 52°01' E 004°04'3 6.1
2019-Apr-24 09:30N 52°03' E 004°08'3 5.7
2019-Apr-24 09:00N 52°06' E 004°11'3 5.4
2019-Apr-24 08:30N 52°08' E 004°14'0 0.5
2019-Apr-24 08:00N 52°08' E 004°14'1 1.0
2019-Apr-24 07:28N 52°08' E 004°15'0 0.2
2019-Apr-24 07:00N 52°08' E 004°15'2 3.3
2019-Apr-24 06:30N 52°06' E 004°15'0 1.0
2019-Apr-24 06:00N 52°06' E 004°16'0 0.0
2019-Apr-24 05:30N 52°06' E 004°16'0 0.0
2019-Apr-24 05:00N 52°06' E 004°16'0 0.0
2019-Apr-24 04:30N 52°06' E 004°16'0 0.0
2019-Apr-24 04:00N 52°06' E 004°16'0 0.0
2019-Apr-24 03:30N 52°06' E 004°16'0 0.0
2019-Apr-24 03:00N 52°06' E 004°16'0 0.0
2019-Apr-24 02:30N 52°06' E 004°16'0 0.0
2019-Apr-24 02:00N 52°06' E 004°16'0 0.0
2019-Apr-24 01:30N 52°06' E 004°16'0 0.0
2019-Apr-24 01:00N 52°06' E 004°16'0 0.0
2019-Apr-24 00:30N 52°06' E 004°16'0 0.0
2019-Apr-24 00:00N 52°06' E 004°16'0 0.0
2019-Apr-23 23:30N 52°06' E 004°16'0 0.0
2019-Apr-23 23:00N 52°06' E 004°16'0 0.0
2019-Apr-23 22:30N 52°06' E 004°16'0 0.0
2019-Apr-23 22:00N 52°06' E 004°16'0 0.0
2019-Apr-23 21:30N 52°06' E 004°16'0 0.0
2019-Apr-23 21:00N 52°06' E 004°16'0 0.0
2019-Apr-23 20:30N 52°06' E 004°16'0 0.0
2019-Apr-23 20:00N 52°06' E 004°16'0 0.0
2019-Apr-23 19:30N 52°06' E 004°16'0 0.0
2019-Apr-23 19:00N 52°06' E 004°16'0 0.0
2019-Apr-23 18:30N 52°06' E 004°16'0 0.0
2019-Apr-23 18:00N 52°06' E 004°16'0 0.0
2019-Apr-23 17:30N 52°06' E 004°16'0 0.0
2019-Apr-23 17:00N 52°06' E 004°16'0 0.0
2019-Apr-23 16:29N 52°06' E 004°16'0 0.0
2019-Apr-23 15:59N 52°06' E 004°16'0 0.0
2019-Apr-23 15:29N 52°06' E 004°16'0 0.0
2019-Apr-23 14:59N 52°06' E 004°16'0 0.0
2019-Apr-23 14:29N 52°06' E 004°16'0 0.8
2019-Apr-23 14:00N 52°06' E 004°15'2 5.0
2019-Apr-23 13:30N 52°07' E 004°11'3 6.6
2019-Apr-23 13:00N 52°06' E 004°06'1 2.2
2019-Apr-23 12:31N 52°07' E 004°05'2 3.7
2019-Apr-23 12:00N 52°08' E 004°04'2 3.9
2019-Apr-23 11:30N 52°07' E 004°04'1 1.6
2019-Apr-23 11:00N 52°06' E 004°05'4 7.4
2019-Apr-23 10:31N 52°09' E 004°08'4 7.6
2019-Apr-23 10:00N 52°13' E 004°10'4 8.2
2019-Apr-23 09:30N 52°17' E 004°11'4 7.2
2019-Apr-23 09:00N 52°20' E 004°12'3 6.7
2019-Apr-23 08:31N 52°24' E 004°13'2 3.2
2019-Apr-23 08:00N 52°22' E 004°12'4 7.2
2019-Apr-23 07:30N 52°19' E 004°11'4 8.8
2019-Apr-23 07:01N 52°15' E 004°08'2 3.5
2019-Apr-23 06:30N 52°14' E 004°05'3 6.7
2019-Apr-23 06:00N 52°17' E 004°03'3 6.6
2019-Apr-23 05:31N 52°20' E 003°60'3 6.6
2019-Apr-23 05:00N 52°23' E 003°58'3 6.3
2019-Apr-23 04:30N 52°26' E 003°55'4 6.9
2019-Apr-23 03:59N 52°29' E 003°53'4 7.1
2019-Apr-23 03:24N 52°33' E 003°50'3 7.5
2019-Apr-23 02:56N 52°36' E 003°48'3 7.3
2019-Apr-23 02:30N 52°39' E 003°46'3 6.9
2019-Apr-23 02:01N 52°42' E 003°45'4 8.2
2019-Apr-23 01:30N 52°47' E 003°43'6 9.5
2019-Apr-23 00:50N 52°53' E 003°44'3 9.7
2019-Apr-23 00:30N 52°56' E 003°44'5 9.6
2019-Apr-23 00:00N 53°01' E 003°44'6 9.9
2019-Apr-22 23:21N 53°07' E 003°43'410.0
2019-Apr-22 22:59N 53°11' E 003°43'2 2.7
2019-Apr-22 22:13N 53°09' E 003°43'3 6.9
2019-Apr-22 21:44N 53°05' E 003°44'2 7.1
2019-Apr-22 21:25N 53°03' E 003°43'13 7.6
2019-Apr-22 19:40N 52°50' E 003°46'2 6.9
2019-Apr-22 19:21N 52°48' E 003°48'3 8.0
2019-Apr-22 18:57N 52°45' E 003°48'4 9.0
2019-Apr-22 18:29N 52°41' E 003°48'4 8.9
2019-Apr-22 17:59N 52°36' E 003°48'3 6.8
2019-Apr-22 17:30N 52°33' E 003°47'3 5.8
2019-Apr-22 16:59N 52°30' E 003°47'4 8.0
2019-Apr-22 16:30N 52°26' E 003°47'3 6.9
2019-Apr-22 16:00N 52°23' E 003°47'2 3.4
2019-Apr-22 15:30N 52°22' E 003°45'3 5.0
2019-Apr-22 15:00N 52°23' E 003°42'3 5.9
2019-Apr-22 14:30N 52°26' E 003°39'4 7.7
2019-Apr-22 14:00N 52°29' E 003°37'5 9.2
2019-Apr-22 13:30N 52°34' E 003°35'4 8.8
2019-Apr-22 13:00N 52°38' E 003°34'4 7.7
2019-Apr-22 12:30N 52°42' E 003°31'4 7.1
2019-Apr-22 12:01N 52°45' E 003°29'3 6.1
2019-Apr-22 11:30N 52°48' E 003°28'4 7.3
2019-Apr-22 11:00N 52°52' E 003°27'4 8.5
2019-Apr-22 10:30N 52°56' E 003°27'4 8.6
2019-Apr-22 10:00N 53°00' E 003°26'4 8.6
2019-Apr-22 09:30N 53°04' E 003°25'4 8.2
2019-Apr-22 09:00N 53°08' E 003°24'6 7.5
2019-Apr-22 08:16N 53°14' E 003°22'4 7.4
2019-Apr-22 07:45N 53°17' E 003°21'2 6.7
2019-Apr-22 07:29N 53°19' E 003°20'4 3.8
2019-Apr-22 06:24N 53°23' E 003°16'3 7.6
2019-Apr-22 06:00N 53°20' E 003°14'4 8.4
2019-Apr-22 05:31N 53°16' E 003°11'3 6.8
2019-Apr-22 05:00N 53°13' E 003°08'3 6.4
2019-Apr-22 04:30N 53°10' E 003°05'3 6.6
2019-Apr-22 04:00N 53°08' E 003°03'3 6.6
2019-Apr-22 03:30N 53°04' E 003°01'3 6.7
2019-Apr-22 03:00N 53°01' E 002°60'3 6.7
2019-Apr-22 02:31N 52°58' E 002°58'3 5.3
2019-Apr-22 02:00N 52°55' E 002°58'3 5.3
2019-Apr-22 01:30N 52°53' E 002°57'2 5.0
2019-Apr-22 01:01N 52°50' E 002°57'2 5.0
2019-Apr-22 00:31N 52°48' E 002°56'2 4.6
2019-Apr-22 00:00N 52°45' E 002°57'2 4.0
2019-Apr-21 23:31N 52°43' E 002°57'2 4.2
2019-Apr-21 23:01N 52°41' E 002°58'2 4.1
2019-Apr-21 22:30N 52°40' E 002°59'2 4.1
2019-Apr-21 22:00N 52°38' E 003°01'2 4.4
2019-Apr-21 21:30N 52°36' E 003°03'2 4.4
2019-Apr-21 21:00N 52°34' E 003°05'2 4.6
2019-Apr-21 20:30N 52°32' E 003°08'2 4.8
2019-Apr-21 20:00N 52°31' E 003°10'3 5.3
2019-Apr-21 19:30N 52°28' E 003°12'3 5.5
2019-Apr-21 19:00N 52°26' E 003°14'3 6.0
2019-Apr-21 18:30N 52°23' E 003°17'3 6.7
2019-Apr-21 18:00N 52°20' E 003°20'3 6.5
2019-Apr-21 17:31N 52°18' E 003°24'4 7.4
2019-Apr-21 17:00N 52°15' E 003°26'4 7.1
2019-Apr-21 16:31N 52°12' E 003°29'4 7.1
2019-Apr-21 16:00N 52°09' E 003°33'3 7.1
2019-Apr-21 15:30N 52°07' E 003°38'3 5.4
2019-Apr-21 15:01N 52°06' E 003°42'3 5.5
2019-Apr-21 14:30N 52°06' E 003°46'3 6.2
2019-Apr-21 14:01N 52°05' E 003°51'2 4.0
2019-Apr-21 13:31N 52°04' E 003°54'1 2.3
2019-Apr-21 13:01N 52°04' E 003°56'2 4.7
2019-Apr-21 12:31N 52°04' E 003°60'0 1.0
2019-Apr-21 12:01N 52°04' E 004°01'2 4.2
2019-Apr-21 11:31N 52°03' E 003°58'0 0.4
2019-Apr-21 11:01N 52°03' E 003°57'2 3.5
2019-Apr-21 10:31N 52°02' E 003°59'1 2.9
2019-Apr-21 10:01N 52°01' E 004°01'1 2.3
2019-Apr-21 09:30N 52°02' E 004°03'2 3.4
2019-Apr-21 09:01N 52°00' E 004°02'4 7.8
2019-Apr-21 08:31N 51°58' E 004°08'510.0
2019-Apr-21 08:01N 51°55' E 004°14'5 9.0
2019-Apr-21 07:31N 51°54' E 004°21'4 7.2
2019-Apr-21 06:59N 51°54' E 004°28'0 0.0
2019-Apr-21 06:29N 51°54' E 004°28'0 0.0
2019-Apr-21 05:59N 51°54' E 004°28'0 0.0
2019-Apr-21 05:29N 51°54' E 004°28'0 0.0
2019-Apr-21 04:59N 51°54' E 004°28'0 0.0
2019-Apr-21 04:29N 51°54' E 004°28'0 0.0
2019-Apr-21 03:59N 51°54' E 004°28'0 0.0
2019-Apr-21 03:29N 51°54' E 004°28'0 0.0
2019-Apr-21 02:59N 51°54' E 004°28'0 0.0
2019-Apr-21 02:29N 51°54' E 004°28'0 0.0
2019-Apr-21 01:59N 51°54' E 004°28'0 0.0
2019-Apr-21 01:29N 51°54' E 004°28'0 0.0
2019-Apr-21 00:59N 51°54' E 004°28'0 0.0
2019-Apr-21 00:29N 51°54' E 004°28'0 0.0
2019-Apr-20 23:59N 51°54' E 004°28'0 0.0
2019-Apr-20 23:29N 51°54' E 004°28'0 0.0
2019-Apr-20 22:59N 51°54' E 004°28'0 0.0
2019-Apr-20 22:29N 51°54' E 004°28'0 0.0
2019-Apr-20 21:59N 51°54' E 004°28'0 0.0
2019-Apr-20 21:29N 51°54' E 004°28'0 0.0
2019-Apr-20 20:59N 51°54' E 004°28'0 0.0
2019-Apr-20 20:29N 51°54' E 004°28'0 0.0
2019-Apr-20 19:59N 51°54' E 004°28'0 0.0
2019-Apr-20 19:29N 51°54' E 004°28'0 0.0
2019-Apr-20 18:59N 51°54' E 004°28'0 0.0
2019-Apr-20 18:28N 51°54' E 004°28'0 0.0
2019-Apr-20 17:58N 51°54' E 004°28'0 0.0
2019-Apr-20 17:28N 51°54' E 004°28'0 0.0
2019-Apr-20 16:58N 51°54' E 004°28'0 0.0
2019-Apr-20 16:30N 51°54' E 004°28'2 3.6
2019-Apr-20 16:00N 51°54' E 004°25'3 6.6
2019-Apr-20 15:30N 51°54' E 004°19'510.4
2019-Apr-20 15:00N 51°56' E 004°12'510.5
2019-Apr-20 14:30N 51°59' E 004°05'3 6.0
2019-Apr-20 14:00N 52°02' E 004°04'1 2.4
2019-Apr-20 13:30N 52°02' E 004°02'4 7.2
2019-Apr-20 13:00N 52°04' E 003°57'3 6.9
2019-Apr-20 12:31N 52°06' E 003°53'2 3.8
2019-Apr-20 12:00N 52°05' E 003°56'3 6.1
2019-Apr-20 11:30N 52°04' E 004°00'2 4.9
2019-Apr-20 11:00N 52°02' E 004°03'2 4.1
2019-Apr-20 10:31N 52°00' E 004°03'4 7.2
2019-Apr-20 10:00N 51°58' E 004°08'4 8.9
2019-Apr-20 09:30N 51°56' E 004°13'4 8.2
2019-Apr-20 09:00N 51°54' E 004°19'4 7.9
2019-Apr-20 08:30N 51°54' E 004°26'1 2.5
2019-Apr-20 08:00N 51°54' E 004°28'0 0.0
2019-Apr-20 07:29N 51°54' E 004°28'0 0.0
2019-Apr-20 06:59N 51°54' E 004°28'0 0.0
2019-Apr-20 06:29N 51°54' E 004°28'0 0.0
2019-Apr-20 05:59N 51°54' E 004°28'0 0.0
2019-Apr-20 05:29N 51°54' E 004°28'0 0.0
2019-Apr-20 04:59N 51°54' E 004°28'0 0.0
2019-Apr-20 04:28N 51°54' E 004°28'0 0.0
2019-Apr-20 03:58N 51°54' E 004°28'0 0.0
2019-Apr-20 03:28N 51°54' E 004°28'0 0.0
2019-Apr-20 02:58N 51°54' E 004°28'0 0.0
2019-Apr-20 02:28N 51°54' E 004°28'0 0.0
2019-Apr-20 01:58N 51°54' E 004°28'0 0.0
2019-Apr-20 01:28N 51°54' E 004°28'0 0.0
2019-Apr-20 00:58N 51°54' E 004°28'0 0.0
2019-Apr-20 00:28N 51°54' E 004°28'0 0.0
2019-Apr-19 23:58N 51°54' E 004°28'0 0.0
2019-Apr-19 23:28N 51°54' E 004°28'0 0.0
2019-Apr-19 22:58N 51°54' E 004°28'0 0.0
2019-Apr-19 22:28N 51°54' E 004°28'0 0.0
2019-Apr-19 21:58N 51°54' E 004°28'0 0.0
2019-Apr-19 21:28N 51°54' E 004°28'0 0.0
2019-Apr-19 20:58N 51°54' E 004°28'0 0.0
2019-Apr-19 20:28N 51°54' E 004°28'0 0.0
2019-Apr-19 19:58N 51°54' E 004°28'0 0.0
2019-Apr-19 19:28N 51°54' E 004°28'0 0.0
2019-Apr-19 18:58N 51°54' E 004°28'0 0.0
2019-Apr-19 18:28N 51°54' E 004°28'0 0.0
2019-Apr-19 17:58N 51°54' E 004°28'0 0.0
2019-Apr-19 17:28N 51°54' E 004°28'0 0.0
2019-Apr-19 16:58N 51°54' E 004°28'0 0.0
2019-Apr-19 16:28N 51°54' E 004°28'0 0.0
2019-Apr-19 15:58N 51°54' E 004°28'0 0.0
2019-Apr-19 15:28N 51°54' E 004°28'0 0.0
2019-Apr-19 14:58N 51°54' E 004°28'0 0.0
2019-Apr-19 14:28N 51°54' E 004°28'0 0.0
2019-Apr-19 13:58N 51°54' E 004°28'0 1.1
2019-Apr-19 13:30N 51°54' E 004°28'2 4.2
2019-Apr-19 13:00N 51°54' E 004°25'3 6.3
2019-Apr-19 12:30N 51°54' E 004°20'3 5.5
2019-Apr-19 12:00N 51°54' E 004°16'3 5.4
2019-Apr-19 11:30N 51°56' E 004°12'2 4.9
2019-Apr-19 11:00N 51°58' E 004°09'2 4.3
2019-Apr-19 10:30N 51°58' E 004°06'2 4.5
2019-Apr-19 10:00N 51°59' E 004°03'1 3.0
2019-Apr-19 09:30N 52°01' E 004°03'1 2.2
2019-Apr-19 09:00N 52°01' E 004°02'1 2.5
2019-Apr-19 08:30N 52°03' E 004°01'2 3.9
2019-Apr-19 08:00N 52°05' E 004°02'3 6.0
2019-Apr-19 07:30N 52°07' E 004°03'3 5.9
2019-Apr-19 07:00N 52°10' E 004°03'3 5.8
2019-Apr-19 06:30N 52°13' E 004°04'3 5.9
2019-Apr-19 06:00N 52°16' E 004°05'3 5.9
2019-Apr-19 05:30N 52°19' E 004°05'4 7.5
2019-Apr-19 05:00N 52°23' E 004°05'4 7.3
2019-Apr-19 04:30N 52°27' E 004°05'4 7.5
2019-Apr-19 04:00N 52°30' E 004°05'4 7.3
2019-Apr-19 03:30N 52°34' E 004°04'3 6.9
2019-Apr-19 03:00N 52°37' E 004°03'3 6.3
2019-Apr-19 02:30N 52°40' E 004°02'4 7.6
2019-Apr-19 02:01N 52°37' E 004°03'5 9.3
2019-Apr-19 01:30N 52°32' E 004°04'510.2
2019-Apr-19 01:00N 52°27' E 004°04'5 9.7
2019-Apr-19 00:30N 52°22' E 004°06'5 9.2
2019-Apr-19 00:00N 52°19' E 004°11'3 5.1
2019-Apr-18 23:30N 52°16' E 004°12'3 5.0
2019-Apr-18 23:00N 52°14' E 004°11'3 6.4
2019-Apr-18 22:30N 52°10' E 004°11'3 6.9
2019-Apr-18 22:00N 52°07' E 004°13'3 5.4
2019-Apr-18 21:30N 52°10' E 004°11'3 6.7
2019-Apr-18 21:00N 52°13' E 004°12'4 8.0
2019-Apr-18 20:30N 52°17' E 004°14'4 8.5
2019-Apr-18 20:00N 52°20' E 004°18'4 8.7
2019-Apr-18 19:30N 52°24' E 004°22'4 8.1
2019-Apr-18 19:00N 52°28' E 004°25'4 8.8
2019-Apr-18 18:30N 52°32' E 004°27'5 9.5
2019-Apr-18 18:01N 52°36' E 004°30'4 8.9
2019-Apr-18 17:30N 52°41' E 004°30'4 8.3
2019-Apr-18 17:00N 52°45' E 004°30'4 8.2
2019-Apr-18 16:30N 52°49' E 004°30'3 6.4
2019-Apr-18 16:00N 52°52' E 004°29'2 5.0
2019-Apr-18 15:30N 52°55' E 004°27'3 5.6
2019-Apr-18 15:00N 52°57' E 004°25'2 4.3
2019-Apr-18 14:30N 52°55' E 004°23'4 8.7
2019-Apr-18 14:00N 52°51' E 004°23'5 9.8
2019-Apr-18 13:30N 52°46' E 004°23'5 9.8
2019-Apr-18 13:00N 52°41' E 004°22'5 9.6
2019-Apr-18 12:30N 52°36' E 004°22'5 9.7
2019-Apr-18 12:00N 52°31' E 004°23'4 8.7
2019-Apr-18 11:31N 52°27' E 004°24'4 7.3
2019-Apr-18 11:00N 52°23' E 004°24'3 5.2
2019-Apr-18 10:30N 52°21' E 004°24'2 4.7
2019-Apr-18 10:00N 52°19' E 004°23'4 7.7
2019-Apr-18 09:30N 52°15' E 004°20'4 8.0
2019-Apr-18 09:01N 52°11' E 004°18'2 3.5
2019-Apr-18 08:30N 52°10' E 004°16'1 1.5
2019-Apr-18 08:00N 52°10' E 004°15'1 2.1
2019-Apr-18 07:30N 52°09' E 004°14'1 2.9
2019-Apr-18 07:00N 52°07' E 004°15'1 2.8
2019-Apr-18 06:30N 52°06' E 004°16'0 0.0
2019-Apr-18 05:59N 52°06' E 004°16'0 0.0
2019-Apr-18 05:29N 52°06' E 004°16'0 0.0
2019-Apr-18 04:59N 52°06' E 004°16'0 0.0
2019-Apr-18 04:29N 52°06' E 004°16'0 0.0
2019-Apr-18 03:59N 52°06' E 004°16'0 0.0
2019-Apr-18 03:29N 52°06' E 004°16'0 0.0
2019-Apr-18 02:59N 52°06' E 004°16'0 0.0
2019-Apr-18 02:29N 52°06' E 004°16'0 0.0
2019-Apr-18 01:59N 52°06' E 004°16'0 0.0
2019-Apr-18 01:29N 52°06' E 004°16'0 0.0
2019-Apr-18 00:59N 52°06' E 004°16'0 0.0
2019-Apr-18 00:28N 52°06' E 004°16'0 0.0
2019-Apr-17 23:58N 52°06' E 004°16'0 0.0
2019-Apr-17 23:28N 52°06' E 004°16'0 0.0
2019-Apr-17 22:59N 52°06' E 004°16'0 0.0
2019-Apr-17 22:28N 52°06' E 004°16'0 0.0
2019-Apr-17 21:58N 52°06' E 004°16'0 0.0
2019-Apr-17 21:28N 52°06' E 004°16'0 0.0
2019-Apr-17 20:58N 52°06' E 004°16'0 0.0
2019-Apr-17 20:28N 52°06' E 004°16'0 0.0
2019-Apr-17 19:58N 52°06' E 004°16'0 0.0
2019-Apr-17 19:28N 52°06' E 004°16'0 0.0
2019-Apr-17 18:58N 52°06' E 004°16'0 0.0
2019-Apr-17 18:28N 52°06' E 004°16'0 0.0
2019-Apr-17 17:58N 52°06' E 004°16'0 0.0
2019-Apr-17 17:28N 52°06' E 004°16'0 0.0
2019-Apr-17 16:58N 52°06' E 004°16'0 0.0
2019-Apr-17 16:28N 52°06' E 004°16'0 0.0
2019-Apr-17 15:58N 52°06' E 004°16'0 0.0
2019-Apr-17 15:28N 52°06' E 004°16'0 0.0
2019-Apr-17 14:58N 52°06' E 004°16'0 0.0
2019-Apr-17 14:28N 52°06' E 004°16'0 0.7
2019-Apr-17 14:00N 52°06' E 004°16'2 3.9
2019-Apr-17 13:31N 52°08' E 004°14'0 0.6
2019-Apr-17 13:01N 52°08' E 004°15'1 1.0
2019-Apr-17 12:31N 52°08' E 004°15'0 0.6
2019-Apr-17 12:01N 52°08' E 004°15'0 0.2
2019-Apr-17 11:30N 52°08' E 004°15'2 3.1
2019-Apr-17 11:01N 52°09' E 004°13'2 4.9
2019-Apr-17 10:30N 52°07' E 004°15'1 3.0
2019-Apr-17 10:01N 52°08' E 004°13'1 2.7
2019-Apr-17 09:30N 52°08' E 004°11'2 4.2
2019-Apr-17 09:00N 52°07' E 004°15'0 0.6
2019-Apr-17 08:31N 52°08' E 004°14'0 0.6
2019-Apr-17 08:00N 52°07' E 004°15'1 2.2
2019-Apr-17 07:31N 52°08' E 004°14'0 0.7
2019-Apr-17 07:01N 52°08' E 004°14'0 0.3
2019-Apr-17 06:31N 52°08' E 004°14'1 2.2
2019-Apr-17 06:00N 52°09' E 004°13'1 2.7
2019-Apr-17 05:31N 52°10' E 004°12'0 0.4
2019-Apr-17 05:01N 52°10' E 004°12'2 3.6
2019-Apr-17 04:31N 52°09' E 004°14'3 5.1
2019-Apr-17 04:01N 52°11' E 004°12'2 3.8
2019-Apr-17 03:31N 52°09' E 004°13'1 2.4
2019-Apr-17 03:01N 52°10' E 004°12'1 1.7
2019-Apr-17 02:30N 52°09' E 004°13'0 0.9
2019-Apr-17 02:01N 52°10' E 004°13'2 4.3
2019-Apr-17 01:31N 52°12' E 004°11'1 2.9
2019-Apr-17 01:00N 52°13' E 004°11'3 5.8
2019-Apr-17 00:31N 52°16' E 004°12'3 5.6
2019-Apr-17 00:00N 52°19' E 004°14'3 5.7
2019-Apr-16 23:31N 52°21' E 004°15'2 4.7
2019-Apr-16 23:00N 52°24' E 004°15'3 5.6
2019-Apr-16 22:30N 52°27' E 004°16'3 6.9
2019-Apr-16 22:00N 52°30' E 004°17'2 4.9
2019-Apr-16 21:31N 52°32' E 004°18'3 5.8
2019-Apr-16 21:01N 52°35' E 004°19'3 5.8
2019-Apr-16 20:30N 52°38' E 004°20'3 5.4
2019-Apr-16 20:01N 52°41' E 004°21'3 5.7
2019-Apr-16 19:30N 52°43' E 004°23'3 5.6
2019-Apr-16 19:01N 52°46' E 004°24'3 5.6
2019-Apr-16 18:31N 52°49' E 004°25'2 3.6
2019-Apr-16 18:01N 52°50' E 004°22'2 4.2
2019-Apr-16 17:30N 52°51' E 004°20'4 7.6
2019-Apr-16 17:00N 52°54' E 004°16'5 9.5
2019-Apr-16 16:30N 52°58' E 004°12'5 9.8
2019-Apr-16 16:00N 53°02' E 004°06'510.1
2019-Apr-16 15:29N 53°06' E 004°00'12 3.1
2019-Apr-16 11:31N 52°59' E 003°42'0 6.4
2019-Apr-16 11:30N 52°59' E 003°42'4 7.0
2019-Apr-16 11:00N 52°56' E 003°42'14 8.3
2019-Apr-16 09:19N 52°42' E 003°47'3 8.1
2019-Apr-16 09:00N 52°39' E 003°47'4 8.6
2019-Apr-16 08:30N 52°35' E 003°47'4 8.4
2019-Apr-16 08:01N 52°31' E 003°46'4 7.9
2019-Apr-16 07:30N 52°27' E 003°45'4 7.7
2019-Apr-16 07:00N 52°23' E 003°45'4 7.6
2019-Apr-16 06:30N 52°19' E 003°43'4 8.0
2019-Apr-16 06:01N 52°16' E 003°41'1 2.6
2019-Apr-16 05:31N 52°15' E 003°40'510.7
2019-Apr-16 05:00N 52°20' E 003°40'510.3
2019-Apr-16 04:30N 52°25' E 003°41'5 9.9
2019-Apr-16 04:00N 52°30' E 003°42'4 9.0
2019-Apr-16 03:30N 52°34' E 003°41'5 9.4
2019-Apr-16 02:59N 52°39' E 003°41'5 9.6
2019-Apr-16 02:28N 52°44' E 003°42'4 8.7
2019-Apr-16 02:00N 52°48' E 003°44'28 7.2
2019-Apr-15 22:02N 53°14' E 004°02'3 9.7
2019-Apr-15 21:43N 53°12' E 004°05'2 9.3
2019-Apr-15 21:30N 53°11' E 004°07'4 9.1
2019-Apr-15 21:01N 53°08' E 004°13'5 9.1
2019-Apr-15 20:30N 53°06' E 004°20'4 7.5
2019-Apr-15 20:00N 53°04' E 004°25'3 5.5
2019-Apr-15 19:30N 53°03' E 004°30'3 6.1
2019-Apr-15 19:01N 53°00' E 004°30'4 7.4
2019-Apr-15 18:30N 52°56' E 004°30'4 7.3
2019-Apr-15 18:00N 52°53' E 004°30'4 8.0
2019-Apr-15 17:30N 52°49' E 004°31'4 8.2
2019-Apr-15 17:01N 52°45' E 004°31'4 8.5
2019-Apr-15 16:31N 52°40' E 004°30'4 8.9
2019-Apr-15 16:00N 52°36' E 004°28'3 6.9
2019-Apr-15 15:30N 52°33' E 004°26'  
Track history (hours):
 
Tides and Currents Weather Stations Pressure Air Temp Water Temp Dewpoint Dewpoint Depression Visibility Wind Speed Wind Dir Waves Ship Positions

Eendracht (Netherlands)

Last reported at 2019-Apr-25 15:30 UTC. Time now 2019-Apr-25 15:55 UTC.
Position N 52°10' E 003°25'.

Length 59 m; beam 12 m; draft 5 m.

Type: Sailing vessel. MMSI: 244543000.

Date/timePositionNaut miles runAvg speedWind from/ knotsBaromVisibWave heightAir tempDewpointWater temp
2019-Apr-25 15:30N 52°10' E 003°25'2 3.2
2019-Apr-25 15:00N 52°09' E 003°27'1 2.9
2019-Apr-25 14:30N 52°09' E 003°29'3 5.4
2019-Apr-25 14:01N 52°08' E 003°33'4 8.5
2019-Apr-25 13:30N 52°06' E 003°40'3 7.0
2019-Apr-25 13:00N 52°06' E 003°45'4 7.1
2019-Apr-25 12:30N 52°05' E 003°51'3 6.7
2019-Apr-25 12:01N 52°06' E 003°56'1 2.1
2019-Apr-25 11:31N 52°05' E 003°57'4 7.3
2019-Apr-25 11:01N 52°01' E 003°58'4 8.4
2019-Apr-25 10:31N 51°59' E 004°04'5 9.5
2019-Apr-25 10:01N 51°57' E 004°11'5 9.6
2019-Apr-25 09:31N 51°54' E 004°17'4 7.9
2019-Apr-25 09:01N 51°54' E 004°24'2 5.0
2019-Apr-25 08:31N 51°54' E 004°28'0 0.0
2019-Apr-25 07:56N 51°54' E 004°28'0 0.0
2019-Apr-25 07:26N 51°54' E 004°28'0 0.0
2019-Apr-25 07:00N 51°54' E 004°28'0 0.0
2019-Apr-25 06:26N 51°54' E 004°28'0 0.0
2019-Apr-25 05:59N 51°54' E 004°28'0 0.0
2019-Apr-25 05:26N 51°54' E 004°28'0 0.0
2019-Apr-25 04:59N 51°54' E 004°28'0 0.0
2019-Apr-25 04:29N 51°54' E 004°28'0 0.0
2019-Apr-25 03:59N 51°54' E 004°28'0 0.0
2019-Apr-25 03:29N 51°54' E 004°28'0 0.0
2019-Apr-25 02:59N 51°54' E 004°28'0 0.0
2019-Apr-25 02:29N 51°54' E 004°28'0 0.0
2019-Apr-25 01:59N 51°54' E 004°28'0 0.0
2019-Apr-25 01:29N 51°54' E 004°28'0 0.0
2019-Apr-25 00:59N 51°54' E 004°28'0 0.0
2019-Apr-25 00:29N 51°54' E 004°28'0 0.0
2019-Apr-24 23:59N 51°54' E 004°28'0 0.0
2019-Apr-24 23:29N 51°54' E 004°28'0 0.0
2019-Apr-24 22:56N 51°54' E 004°28'0 0.0
2019-Apr-24 22:29N 51°54' E 004°28'0 0.0
2019-Apr-24 21:59N 51°54' E 004°28'0 0.0
2019-Apr-24 21:29N 51°54' E 004°28'0 0.0
2019-Apr-24 20:59N 51°54' E 004°28'0 0.0
2019-Apr-24 20:29N 51°54' E 004°28'0 0.0
2019-Apr-24 19:59N 51°54' E 004°28'0 0.0
2019-Apr-24 19:29N 51°54' E 004°28'0 0.0
2019-Apr-24 18:59N 51°54' E 004°28'0 0.0
2019-Apr-24 18:29N 51°54' E 004°28'0 0.0
2019-Apr-24 17:59N 51°54' E 004°28'0 0.0
2019-Apr-24 17:29N 51°54' E 004°28'0 0.0
2019-Apr-24 16:59N 51°54' E 004°28'0 0.0
2019-Apr-24 16:29N 51°54' E 004°28'0 0.0
2019-Apr-24 15:59N 51°54' E 004°28'0 0.0
2019-Apr-24 15:29N 51°54' E 004°28'0 0.0
2019-Apr-24 14:59N 51°54' E 004°28'0 0.0
2019-Apr-24 14:29N 51°54' E 004°28'0 0.0
2019-Apr-24 13:59N 51°54' E 004°28'0 0.0
2019-Apr-24 13:29N 51°54' E 004°28'0 0.5
2019-Apr-24 13:00N 51°54' E 004°27'4 7.3
2019-Apr-24 12:30N 51°54' E 004°21'3 6.6
2019-Apr-24 12:00N 51°54' E 004°16'3 6.3
2019-Apr-24 11:30N 51°56' E 004°12'3 6.0
2019-Apr-24 11:00N 51°58' E 004°08'3 5.7
2019-Apr-24 10:30N 51°59' E 004°04'2 4.3
2019-Apr-24 10:00N 52°01' E 004°04'3 6.1
2019-Apr-24 09:30N 52°03' E 004°08'3 5.7
2019-Apr-24 09:00N 52°06' E 004°11'3 5.4
2019-Apr-24 08:30N 52°08' E 004°14'0 0.5
2019-Apr-24 08:00N 52°08' E 004°14'1 1.0
2019-Apr-24 07:28N 52°08' E 004°15'0 0.2
2019-Apr-24 07:00N 52°08' E 004°15'2 3.3
2019-Apr-24 06:30N 52°06' E 004°15'0 1.0
2019-Apr-24 06:00N 52°06' E 004°16'0 0.0
2019-Apr-24 05:30N 52°06' E 004°16'0 0.0
2019-Apr-24 05:00N 52°06' E 004°16'0 0.0
2019-Apr-24 04:30N 52°06' E 004°16'0 0.0
2019-Apr-24 04:00N 52°06' E 004°16'0 0.0
2019-Apr-24 03:30N 52°06' E 004°16'0 0.0
2019-Apr-24 03:00N 52°06' E 004°16'0 0.0
2019-Apr-24 02:30N 52°06' E 004°16'0 0.0
2019-Apr-24 02:00N 52°06' E 004°16'0 0.0
2019-Apr-24 01:30N 52°06' E 004°16'0 0.0
2019-Apr-24 01:00N 52°06' E 004°16'0 0.0
2019-Apr-24 00:30N 52°06' E 004°16'0 0.0
2019-Apr-24 00:00N 52°06' E 004°16'0 0.0
2019-Apr-23 23:30N 52°06' E 004°16'0 0.0
2019-Apr-23 23:00N 52°06' E 004°16'0 0.0
2019-Apr-23 22:30N 52°06' E 004°16'0 0.0
2019-Apr-23 22:00N 52°06' E 004°16'0 0.0
2019-Apr-23 21:30N 52°06' E 004°16'0 0.0
2019-Apr-23 21:00N 52°06' E 004°16'0 0.0
2019-Apr-23 20:30N 52°06' E 004°16'0 0.0
2019-Apr-23 20:00N 52°06' E 004°16'0 0.0
2019-Apr-23 19:30N 52°06' E 004°16'0 0.0
2019-Apr-23 19:00N 52°06' E 004°16'0 0.0
2019-Apr-23 18:30N 52°06' E 004°16'0 0.0
2019-Apr-23 18:00N 52°06' E 004°16'0 0.0
2019-Apr-23 17:30N 52°06' E 004°16'0 0.0
2019-Apr-23 17:00N 52°06' E 004°16'0 0.0
2019-Apr-23 16:29N 52°06' E 004°16'0 0.0
2019-Apr-23 15:59N 52°06' E 004°16'0 0.0
2019-Apr-23 15:29N 52°06' E 004°16'0 0.0
2019-Apr-23 14:59N 52°06' E 004°16'0 0.0
2019-Apr-23 14:29N 52°06' E 004°16'0 0.8
2019-Apr-23 14:00N 52°06' E 004°15'2 5.0
2019-Apr-23 13:30N 52°07' E 004°11'3 6.6
2019-Apr-23 13:00N 52°06' E 004°06'1 2.2
2019-Apr-23 12:31N 52°07' E 004°05'2 3.7
2019-Apr-23 12:00N 52°08' E 004°04'2 3.9
2019-Apr-23 11:30N 52°07' E 004°04'1 1.6
2019-Apr-23 11:00N 52°06' E 004°05'4 7.4
2019-Apr-23 10:31N 52°09' E 004°08'4 7.6
2019-Apr-23 10:00N 52°13' E 004°10'4 8.2
2019-Apr-23 09:30N 52°17' E 004°11'4 7.2
2019-Apr-23 09:00N 52°20' E 004°12'3 6.7
2019-Apr-23 08:31N 52°24' E 004°13'2 3.2
2019-Apr-23 08:00N 52°22' E 004°12'4 7.2
2019-Apr-23 07:30N 52°19' E 004°11'4 8.8
2019-Apr-23 07:01N 52°15' E 004°08'2 3.5
2019-Apr-23 06:30N 52°14' E 004°05'3 6.7
2019-Apr-23 06:00N 52°17' E 004°03'3 6.6
2019-Apr-23 05:31N 52°20' E 003°60'3 6.6
2019-Apr-23 05:00N 52°23' E 003°58'3 6.3
2019-Apr-23 04:30N 52°26' E 003°55'4 6.9
2019-Apr-23 03:59N 52°29' E 003°53'4 7.1
2019-Apr-23 03:24N 52°33' E 003°50'3 7.5
2019-Apr-23 02:56N 52°36' E 003°48'3 7.3
2019-Apr-23 02:30N 52°39' E 003°46'3 6.9
2019-Apr-23 02:01N 52°42' E 003°45'4 8.2
2019-Apr-23 01:30N 52°47' E 003°43'6 9.5
2019-Apr-23 00:50N 52°53' E 003°44'3 9.7
2019-Apr-23 00:30N 52°56' E 003°44'5 9.6
2019-Apr-23 00:00N 53°01' E 003°44'6 9.9
2019-Apr-22 23:21N 53°07' E 003°43'410.0
2019-Apr-22 22:59N 53°11' E 003°43'2 2.7
2019-Apr-22 22:13N 53°09' E 003°43'3 6.9
2019-Apr-22 21:44N 53°05' E 003°44'2 7.1
2019-Apr-22 21:25N 53°03' E 003°43'13 7.6
2019-Apr-22 19:40N 52°50' E 003°46'2 6.9
2019-Apr-22 19:21N 52°48' E 003°48'3 8.0
2019-Apr-22 18:57N 52°45' E 003°48'4 9.0
2019-Apr-22 18:29N 52°41' E 003°48'4 8.9
2019-Apr-22 17:59N 52°36' E 003°48'3 6.8
2019-Apr-22 17:30N 52°33' E 003°47'3 5.8
2019-Apr-22 16:59N 52°30' E 003°47'4 8.0
2019-Apr-22 16:30N 52°26' E 003°47'3 6.9
2019-Apr-22 16:00N 52°23' E 003°47'2 3.4
2019-Apr-22 15:30N 52°22' E 003°45'3 5.0
2019-Apr-22 15:00N 52°23' E 003°42'3 5.9
2019-Apr-22 14:30N 52°26' E 003°39'4 7.7
2019-Apr-22 14:00N 52°29' E 003°37'5 9.2
2019-Apr-22 13:30N 52°34' E 003°35'4 8.8
2019-Apr-22 13:00N 52°38' E 003°34'4 7.7
2019-Apr-22 12:30N 52°42' E 003°31'4 7.1
2019-Apr-22 12:01N 52°45' E 003°29'3 6.1
2019-Apr-22 11:30N 52°48' E 003°28'4 7.3
2019-Apr-22 11:00N 52°52' E 003°27'4 8.5
2019-Apr-22 10:30N 52°56' E 003°27'4 8.6
2019-Apr-22 10:00N 53°00' E 003°26'4 8.6
2019-Apr-22 09:30N 53°04' E 003°25'4 8.2
2019-Apr-22 09:00N 53°08' E 003°24'6 7.5
2019-Apr-22 08:16N 53°14' E 003°22'4 7.4
2019-Apr-22 07:45N 53°17' E 003°21'2 6.7
2019-Apr-22 07:29N 53°19' E 003°20'4 3.8
2019-Apr-22 06:24N 53°23' E 003°16'3 7.6
2019-Apr-22 06:00N 53°20' E 003°14'4 8.4
2019-Apr-22 05:31N 53°16' E 003°11'3 6.8
2019-Apr-22 05:00N 53°13' E 003°08'3 6.4
2019-Apr-22 04:30N 53°10' E 003°05'3 6.6
2019-Apr-22 04:00N 53°08' E 003°03'3 6.6
2019-Apr-22 03:30N 53°04' E 003°01'3 6.7
2019-Apr-22 03:00N 53°01' E 002°60'3 6.7
2019-Apr-22 02:31N 52°58' E 002°58'3 5.3
2019-Apr-22 02:00N 52°55' E 002°58'3 5.3
2019-Apr-22 01:30N 52°53' E 002°57'2 5.0
2019-Apr-22 01:01N 52°50' E 002°57'2 5.0
2019-Apr-22 00:31N 52°48' E 002°56'2 4.6
2019-Apr-22 00:00N 52°45' E 002°57'2 4.0
2019-Apr-21 23:31N 52°43' E 002°57'2 4.2
2019-Apr-21 23:01N 52°41' E 002°58'2 4.1
2019-Apr-21 22:30N 52°40' E 002°59'2 4.1
2019-Apr-21 22:00N 52°38' E 003°01'2 4.4
2019-Apr-21 21:30N 52°36' E 003°03'2 4.4
2019-Apr-21 21:00N 52°34' E 003°05'2 4.6
2019-Apr-21 20:30N 52°32' E 003°08'2 4.8
2019-Apr-21 20:00N 52°31' E 003°10'3 5.3
2019-Apr-21 19:30N 52°28' E 003°12'3 5.5
2019-Apr-21 19:00N 52°26' E 003°14'3 6.0
2019-Apr-21 18:30N 52°23' E 003°17'3 6.7
2019-Apr-21 18:00N 52°20' E 003°20'3 6.5
2019-Apr-21 17:31N 52°18' E 003°24'4 7.4
2019-Apr-21 17:00N 52°15' E 003°26'4 7.1
2019-Apr-21 16:31N 52°12' E 003°29'4 7.1
2019-Apr-21 16:00N 52°09' E 003°33'3 7.1
2019-Apr-21 15:30N 52°07' E 003°38'3 5.4
2019-Apr-21 15:01N 52°06' E 003°42'3 5.5
2019-Apr-21 14:30N 52°06' E 003°46'3 6.2
2019-Apr-21 14:01N 52°05' E 003°51'2 4.0
2019-Apr-21 13:31N 52°04' E 003°54'1 2.3
2019-Apr-21 13:01N 52°04' E 003°56'2 4.7
2019-Apr-21 12:31N 52°04' E 003°60'0 1.0
2019-Apr-21 12:01N 52°04' E 004°01'2 4.2
2019-Apr-21 11:31N 52°03' E 003°58'0 0.4
2019-Apr-21 11:01N 52°03' E 003°57'2 3.5
2019-Apr-21 10:31N 52°02' E 003°59'1 2.9
2019-Apr-21 10:01N 52°01' E 004°01'1 2.3
2019-Apr-21 09:30N 52°02' E 004°03'2 3.4
2019-Apr-21 09:01N 52°00' E 004°02'4 7.8
2019-Apr-21 08:31N 51°58' E 004°08'510.0
2019-Apr-21 08:01N 51°55' E 004°14'5 9.0
2019-Apr-21 07:31N 51°54' E 004°21'4 7.2
2019-Apr-21 06:59N 51°54' E 004°28'0 0.0
2019-Apr-21 06:29N 51°54' E 004°28'0 0.0
2019-Apr-21 05:59N 51°54' E 004°28'0 0.0
2019-Apr-21 05:29N 51°54' E 004°28'0 0.0
2019-Apr-21 04:59N 51°54' E 004°28'0 0.0
2019-Apr-21 04:29N 51°54' E 004°28'0 0.0
2019-Apr-21 03:59N 51°54' E 004°28'0 0.0
2019-Apr-21 03:29N 51°54' E 004°28'0 0.0
2019-Apr-21 02:59N 51°54' E 004°28'0 0.0
2019-Apr-21 02:29N 51°54' E 004°28'0 0.0
2019-Apr-21 01:59N 51°54' E 004°28'0 0.0
2019-Apr-21 01:29N 51°54' E 004°28'0 0.0
2019-Apr-21 00:59N 51°54' E 004°28'0 0.0
2019-Apr-21 00:29N 51°54' E 004°28'0 0.0
2019-Apr-20 23:59N 51°54' E 004°28'0 0.0
2019-Apr-20 23:29N 51°54' E 004°28'0 0.0
2019-Apr-20 22:59N 51°54' E 004°28'0 0.0
2019-Apr-20 22:29N 51°54' E 004°28'0 0.0
2019-Apr-20 21:59N 51°54' E 004°28'0 0.0
2019-Apr-20 21:29N 51°54' E 004°28'0 0.0
2019-Apr-20 20:59N 51°54' E 004°28'0 0.0
2019-Apr-20 20:29N 51°54' E 004°28'0 0.0
2019-Apr-20 19:59N 51°54' E 004°28'0 0.0
2019-Apr-20 19:29N 51°54' E 004°28'0 0.0
2019-Apr-20 18:59N 51°54' E 004°28'0 0.0
2019-Apr-20 18:28N 51°54' E 004°28'0 0.0
2019-Apr-20 17:58N 51°54' E 004°28'0 0.0
2019-Apr-20 17:28N 51°54' E 004°28'0 0.0
2019-Apr-20 16:58N 51°54' E 004°28'0 0.0
2019-Apr-20 16:30N 51°54' E 004°28'2 3.6
2019-Apr-20 16:00N 51°54' E 004°25'3 6.6
2019-Apr-20 15:30N 51°54' E 004°19'510.4
2019-Apr-20 15:00N 51°56' E 004°12'510.5
2019-Apr-20 14:30N 51°59' E 004°05'3 6.0
2019-Apr-20 14:00N 52°02' E 004°04'1 2.4
2019-Apr-20 13:30N 52°02' E 004°02'4 7.2
2019-Apr-20 13:00N 52°04' E 003°57'3 6.9
2019-Apr-20 12:31N 52°06' E 003°53'2 3.8
2019-Apr-20 12:00N 52°05' E 003°56'3 6.1
2019-Apr-20 11:30N 52°04' E 004°00'2 4.9
2019-Apr-20 11:00N 52°02' E 004°03'2 4.1
2019-Apr-20 10:31N 52°00' E 004°03'4 7.2
2019-Apr-20 10:00N 51°58' E 004°08'4 8.9
2019-Apr-20 09:30N 51°56' E 004°13'4 8.2
2019-Apr-20 09:00N 51°54' E 004°19'4 7.9
2019-Apr-20 08:30N 51°54' E 004°26'1 2.5
2019-Apr-20 08:00N 51°54' E 004°28'0 0.0
2019-Apr-20 07:29N 51°54' E 004°28'0 0.0
2019-Apr-20 06:59N 51°54' E 004°28'0 0.0
2019-Apr-20 06:29N 51°54' E 004°28'0 0.0
2019-Apr-20 05:59N 51°54' E 004°28'0 0.0
2019-Apr-20 05:29N 51°54' E 004°28'0 0.0
2019-Apr-20 04:59N 51°54' E 004°28'0 0.0
2019-Apr-20 04:28N 51°54' E 004°28'0 0.0
2019-Apr-20 03:58N 51°54' E 004°28'0 0.0
2019-Apr-20 03:28N 51°54' E 004°28'0 0.0
2019-Apr-20 02:58N 51°54' E 004°28'0 0.0
2019-Apr-20 02:28N 51°54' E 004°28'0 0.0
2019-Apr-20 01:58N 51°54' E 004°28'0 0.0
2019-Apr-20 01:28N 51°54' E 004°28'0 0.0
2019-Apr-20 00:58N 51°54' E 004°28'0 0.0
2019-Apr-20 00:28N 51°54' E 004°28'0 0.0
2019-Apr-19 23:58N 51°54' E 004°28'0 0.0
2019-Apr-19 23:28N 51°54' E 004°28'0 0.0
2019-Apr-19 22:58N 51°54' E 004°28'0 0.0
2019-Apr-19 22:28N 51°54' E 004°28'0 0.0
2019-Apr-19 21:58N 51°54' E 004°28'0 0.0
2019-Apr-19 21:28N 51°54' E 004°28'0 0.0
2019-Apr-19 20:58N 51°54' E 004°28'0 0.0
2019-Apr-19 20:28N 51°54' E 004°28'0 0.0
2019-Apr-19 19:58N 51°54' E 004°28'0 0.0
2019-Apr-19 19:28N 51°54' E 004°28'0 0.0
2019-Apr-19 18:58N 51°54' E 004°28'0 0.0
2019-Apr-19 18:28N 51°54' E 004°28'0 0.0
2019-Apr-19 17:58N 51°54' E 004°28'0 0.0
2019-Apr-19 17:28N 51°54' E 004°28'0 0.0
2019-Apr-19 16:58N 51°54' E 004°28'0 0.0
2019-Apr-19 16:28N 51°54' E 004°28'0 0.0
2019-Apr-19 15:58N 51°54' E 004°28'0 0.0
2019-Apr-19 15:28N 51°54' E 004°28'0 0.0
2019-Apr-19 14:58N 51°54' E 004°28'0 0.0
2019-Apr-19 14:28N 51°54' E 004°28'0 0.0
2019-Apr-19 13:58N 51°54' E 004°28'0 1.1
2019-Apr-19 13:30N 51°54' E 004°28'2 4.2
2019-Apr-19 13:00N 51°54' E 004°25'3 6.3
2019-Apr-19 12:30N 51°54' E 004°20'3 5.5
2019-Apr-19 12:00N 51°54' E 004°16'3 5.4
2019-Apr-19 11:30N 51°56' E 004°12'2 4.9
2019-Apr-19 11:00N 51°58' E 004°09'2 4.3
2019-Apr-19 10:30N 51°58' E 004°06'2 4.5
2019-Apr-19 10:00N 51°59' E 004°03'1 3.0
2019-Apr-19 09:30N 52°01' E 004°03'1 2.2
2019-Apr-19 09:00N 52°01' E 004°02'1 2.5
2019-Apr-19 08:30N 52°03' E 004°01'2 3.9
2019-Apr-19 08:00N 52°05' E 004°02'3 6.0
2019-Apr-19 07:30N 52°07' E 004°03'3 5.9
2019-Apr-19 07:00N 52°10' E 004°03'3 5.8
2019-Apr-19 06:30N 52°13' E 004°04'3 5.9
2019-Apr-19 06:00N 52°16' E 004°05'3 5.9
2019-Apr-19 05:30N 52°19' E 004°05'4 7.5
2019-Apr-19 05:00N 52°23' E 004°05'4 7.3
2019-Apr-19 04:30N 52°27' E 004°05'4 7.5
2019-Apr-19 04:00N 52°30' E 004°05'4 7.3
2019-Apr-19 03:30N 52°34' E 004°04'3 6.9
2019-Apr-19 03:00N 52°37' E 004°03'3 6.3
2019-Apr-19 02:30N 52°40' E 004°02'4 7.6
2019-Apr-19 02:01N 52°37' E 004°03'5 9.3
2019-Apr-19 01:30N 52°32' E 004°04'510.2
2019-Apr-19 01:00N 52°27' E 004°04'5 9.7
2019-Apr-19 00:30N 52°22' E 004°06'5 9.2
2019-Apr-19 00:00N 52°19' E 004°11'3 5.1
2019-Apr-18 23:30N 52°16' E 004°12'3 5.0
2019-Apr-18 23:00N 52°14' E 004°11'3 6.4
2019-Apr-18 22:30N 52°10' E 004°11'3 6.9
2019-Apr-18 22:00N 52°07' E 004°13'3 5.4
2019-Apr-18 21:30N 52°10' E 004°11'3 6.7
2019-Apr-18 21:00N 52°13' E 004°12'4 8.0
2019-Apr-18 20:30N 52°17' E 004°14'4 8.5
2019-Apr-18 20:00N 52°20' E 004°18'4 8.7
2019-Apr-18 19:30N 52°24' E 004°22'4 8.1
2019-Apr-18 19:00N 52°28' E 004°25'4 8.8
2019-Apr-18 18:30N 52°32' E 004°27'5 9.5
2019-Apr-18 18:01N 52°36' E 004°30'4 8.9
2019-Apr-18 17:30N 52°41' E 004°30'4 8.3
2019-Apr-18 17:00N 52°45' E 004°30'4 8.2
2019-Apr-18 16:30N 52°49' E 004°30'3 6.4
2019-Apr-18 16:00N 52°52' E 004°29'2 5.0
2019-Apr-18 15:30N 52°55' E 004°27'3 5.6
2019-Apr-18 15:00N 52°57' E 004°25'2 4.3
2019-Apr-18 14:30N 52°55' E 004°23'4 8.7
2019-Apr-18 14:00N 52°51' E 004°23'5 9.8
2019-Apr-18 13:30N 52°46' E 004°23'5 9.8
2019-Apr-18 13:00N 52°41' E 004°22'5 9.6
2019-Apr-18 12:30N 52°36' E 004°22'5 9.7
2019-Apr-18 12:00N 52°31' E 004°23'4 8.7
2019-Apr-18 11:31N 52°27' E 004°24'4 7.3
2019-Apr-18 11:00N 52°23' E 004°24'3 5.2
2019-Apr-18 10:30N 52°21' E 004°24'2 4.7
2019-Apr-18 10:00N 52°19' E 004°23'4 7.7
2019-Apr-18 09:30N 52°15' E 004°20'4 8.0
2019-Apr-18 09:01N 52°11' E 004°18'2 3.5
2019-Apr-18 08:30N 52°10' E 004°16'1 1.5
2019-Apr-18 08:00N 52°10' E 004°15'1 2.1
2019-Apr-18 07:30N 52°09' E 004°14'1 2.9
2019-Apr-18 07:00N 52°07' E 004°15'1 2.8
2019-Apr-18 06:30N 52°06' E 004°16'0 0.0
2019-Apr-18 05:59N 52°06' E 004°16'0 0.0
2019-Apr-18 05:29N 52°06' E 004°16'0 0.0
2019-Apr-18 04:59N 52°06' E 004°16'0 0.0
2019-Apr-18 04:29N 52°06' E 004°16'0 0.0
2019-Apr-18 03:59N 52°06' E 004°16'0 0.0
2019-Apr-18 03:29N 52°06' E 004°16'0 0.0
2019-Apr-18 02:59N 52°06' E 004°16'0 0.0
2019-Apr-18 02:29N 52°06' E 004°16'0 0.0
2019-Apr-18 01:59N 52°06' E 004°16'0 0.0
2019-Apr-18 01:29N 52°06' E 004°16'0 0.0
2019-Apr-18 00:59N 52°06' E 004°16'0 0.0
2019-Apr-18 00:28N 52°06' E 004°16'0 0.0
2019-Apr-17 23:58N 52°06' E 004°16'0 0.0
2019-Apr-17 23:28N 52°06' E 004°16'0 0.0
2019-Apr-17 22:59N 52°06' E 004°16'0 0.0
2019-Apr-17 22:28N 52°06' E 004°16'0 0.0
2019-Apr-17 21:58N 52°06' E 004°16'0 0.0
2019-Apr-17 21:28N 52°06' E 004°16'0 0.0
2019-Apr-17 20:58N 52°06' E 004°16'0 0.0
2019-Apr-17 20:28N 52°06' E 004°16'0 0.0
2019-Apr-17 19:58N 52°06' E 004°16'0 0.0
2019-Apr-17 19:28N 52°06' E 004°16'0 0.0
2019-Apr-17 18:58N 52°06' E 004°16'0 0.0
2019-Apr-17 18:28N 52°06' E 004°16'0 0.0
2019-Apr-17 17:58N 52°06' E 004°16'0 0.0
2019-Apr-17 17:28N 52°06' E 004°16'0 0.0
2019-Apr-17 16:58N 52°06' E 004°16'0 0.0
2019-Apr-17 16:28N 52°06' E 004°16'0 0.0
2019-Apr-17 15:58N 52°06' E 004°16'0 0.0
2019-Apr-17 15:28N 52°06' E 004°16'0 0.0
2019-Apr-17 14:58N 52°06' E 004°16'0 0.0
2019-Apr-17 14:28N 52°06' E 004°16'0 0.7
2019-Apr-17 14:00N 52°06' E 004°16'2 3.9
2019-Apr-17 13:31N 52°08' E 004°14'0 0.6
2019-Apr-17 13:01N 52°08' E 004°15'1 1.0
2019-Apr-17 12:31N 52°08' E 004°15'0 0.6
2019-Apr-17 12:01N 52°08' E 004°15'0 0.2
2019-Apr-17 11:30N 52°08' E 004°15'2 3.1
2019-Apr-17 11:01N 52°09' E 004°13'2 4.9
2019-Apr-17 10:30N 52°07' E 004°15'1 3.0
2019-Apr-17 10:01N 52°08' E 004°13'1 2.7
2019-Apr-17 09:30N 52°08' E 004°11'2 4.2
2019-Apr-17 09:00N 52°07' E 004°15'0 0.6
2019-Apr-17 08:31N 52°08' E 004°14'0 0.6
2019-Apr-17 08:00N 52°07' E 004°15'1 2.2
2019-Apr-17 07:31N 52°08' E 004°14'0 0.7
2019-Apr-17 07:01N 52°08' E 004°14'0 0.3
2019-Apr-17 06:31N 52°08' E 004°14'1 2.2
2019-Apr-17 06:00N 52°09' E 004°13'1 2.7
2019-Apr-17 05:31N 52°10' E 004°12'0 0.4
2019-Apr-17 05:01N 52°10' E 004°12'2 3.6
2019-Apr-17 04:31N 52°09' E 004°14'3 5.1
2019-Apr-17 04:01N 52°11' E 004°12'2 3.8
2019-Apr-17 03:31N 52°09' E 004°13'1 2.4
2019-Apr-17 03:01N 52°10' E 004°12'1 1.7
2019-Apr-17 02:30N 52°09' E 004°13'0 0.9
2019-Apr-17 02:01N 52°10' E 004°13'2 4.3
2019-Apr-17 01:31N 52°12' E 004°11'1 2.9
2019-Apr-17 01:00N 52°13' E 004°11'3 5.8
2019-Apr-17 00:31N 52°16' E 004°12'3 5.6
2019-Apr-17 00:00N 52°19' E 004°14'3 5.7
2019-Apr-16 23:31N 52°21' E 004°15'2 4.7
2019-Apr-16 23:00N 52°24' E 004°15'3 5.6
2019-Apr-16 22:30N 52°27' E 004°16'3 6.9
2019-Apr-16 22:00N 52°30' E 004°17'2 4.9
2019-Apr-16 21:31N 52°32' E 004°18'3 5.8
2019-Apr-16 21:01N 52°35' E 004°19'3 5.8
2019-Apr-16 20:30N 52°38' E 004°20'3 5.4
2019-Apr-16 20:01N 52°41' E 004°21'3 5.7
2019-Apr-16 19:30N 52°43' E 004°23'3 5.6
2019-Apr-16 19:01N 52°46' E 004°24'3 5.6
2019-Apr-16 18:31N 52°49' E 004°25'2 3.6
2019-Apr-16 18:01N 52°50' E 004°22'2 4.2
2019-Apr-16 17:30N 52°51' E 004°20'4 7.6
2019-Apr-16 17:00N 52°54' E 004°16'5 9.5
2019-Apr-16 16:30N 52°58' E 004°12'5 9.8
2019-Apr-16 16:00N 53°02' E 004°06'510.1
2019-Apr-16 15:29N 53°06' E 004°00'12 3.1
2019-Apr-16 11:31N 52°59' E 003°42'0 6.4
2019-Apr-16 11:30N 52°59' E 003°42'4 7.0
2019-Apr-16 11:00N 52°56' E 003°42'14 8.3
2019-Apr-16 09:19N 52°42' E 003°47'3 8.1
2019-Apr-16 09:00N 52°39' E 003°47'4 8.6
2019-Apr-16 08:30N 52°35' E 003°47'4 8.4
2019-Apr-16 08:01N 52°31' E 003°46'4 7.9
2019-Apr-16 07:30N 52°27' E 003°45'4 7.7
2019-Apr-16 07:00N 52°23' E 003°45'4 7.6
2019-Apr-16 06:30N 52°19' E 003°43'4 8.0
2019-Apr-16 06:01N 52°16' E 003°41'1 2.6
2019-Apr-16 05:31N 52°15' E 003°40'510.7
2019-Apr-16 05:00N 52°20' E 003°40'510.3
2019-Apr-16 04:30N 52°25' E 003°41'5 9.9
2019-Apr-16 04:00N 52°30' E 003°42'4 9.0
2019-Apr-16 03:30N 52°34' E 003°41'5 9.4
2019-Apr-16 02:59N 52°39' E 003°41'5 9.6
2019-Apr-16 02:28N 52°44' E 003°42'4 8.7
2019-Apr-16 02:00N 52°48' E 003°44'28 7.2
2019-Apr-15 22:02N 53°14' E 004°02'3 9.7
2019-Apr-15 21:43N 53°12' E 004°05'2 9.3
2019-Apr-15 21:30N 53°11' E 004°07'4 9.1
2019-Apr-15 21:01N 53°08' E 004°13'5 9.1
2019-Apr-15 20:30N 53°06' E 004°20'4 7.5
2019-Apr-15 20:00N 53°04' E 004°25'3 5.5
2019-Apr-15 19:30N 53°03' E 004°30'3 6.1
2019-Apr-15 19:01N 53°00' E 004°30'4 7.4
2019-Apr-15 18:30N 52°56' E 004°30'4 7.3
2019-Apr-15 18:00N 52°53' E 004°30'4 8.0
2019-Apr-15 17:30N 52°49' E 004°31'4 8.2
2019-Apr-15 17:01N 52°45' E 004°31'4 8.5
2019-Apr-15 16:31N 52°40' E 004°30'4 8.9
2019-Apr-15 16:00N 52°36' E 004°28'3 6.9
2019-Apr-15 15:30N 52°33' E 004°26'  

Dump ship's entire track history